NWS Home NWS Lubbock West Texas Mesonet Central Sector Latest Conditions as of 0546 AM, Sun Jul 23, 2017

Latest   N   C   S   Daily Sum   3hrΔ   24hrΔ   Soil Data 
Site Map   24hr Precip   72hr Precip   Google Plot


Station Time of Last Temp Dew Pt. RH Wind Direction Wind Speed Wind Gust Max Wind Max Temp Min Temp Max RH Min RH Altimeter 1HR Rain Today's Rain Solar Rad
Abernathy 5ENE  05:40 AM 69 63 86% W68 18 mph 351° @ 0325 AM 76 69 86 61 30.03" 0 0.00 0
Aiken 3WSW  05:40 AM 69 65 87% SE22 23 mph 342° @ 0256 AM 76 69 89 67 30.04" 0 0.00 0
Amherst 1NE  05:40 AM 70 62 80% SW68 16 mph 255° @ 1210 AM 72 69 84 70 30.06" 0 0.00 0
Anton 6SSW  05:40 AM 69 62 81% NW77 14 mph 343° @ 0245 AM 79 69 81 57 30.04" 0 0.00 0
Aspermont 3NE  05:40 AM 76 66 71% W57 14 mph 257° @ 0130 AM 85 76 71 47 29.92" 0 0.00 0
Bootleg 11WNW  05:40 AM 64 61 89% SW78 20 mph 330° @ 1204 AM 72 64 90 63 30.14" 0 0.00 0
Brownfield 2S  05:40 AM 73 59 63% N46 13 mph 268° @ 0135 AM 76 73 63 55 30.04" 0 0.00 0
Caprock Canyons State Park  05:40 AM 74 63 68% SW55 22 mph 256° @ 0305 AM 76 73 76 58 29.97" 0 0.00 0
Childress 2NNE  05:40 AM 72 64 80% N89 17 mph 233° @ 0345 AM 80 72 80 56 29.93" 0 0.00 0
Clarendon 2WSW  05:40 AM 73 60 65% N45 23 mph 233° @ 0205 AM 77 73 74 57 29.99" 0 0.00 0
Claude 12SW  05:40 AM 74 60 62% SW56 16 mph 158° @ 0209 AM 78 73 68 52 30.04" 0 0.00 0
Crowell 1E  05:40 AM 79 65 63% NW79 14 mph 283° @ 0438 AM 85 78 67 51 29.91" 0 0.00 0
Denver City 7WNW  05:40 AM 68 62 85% N1113 17 mph 340° @ 0530 AM 74 68 85 55 30.06" 0.05 0.05 0
Dimmitt 2NE  05:40 AM 67 61 83% NW78 24 mph 305° @ 1230 AM 74 67 83 60 30.08" 0 0.00 0
Dora NM 2SW  05:40 AM 67 65 97% NW33 18 mph 195° @ 1220 AM 71 66 98 64 30.12" 0 0.00 0
Floydada 2NNE  05:40 AM 67 65 95% W67 13 mph 280° @ 0325 AM 72 67 95 83 30.01" 0 0.00 0
Fluvanna 3WNW  05:40 AM 73 62 69% NW78 16 mph 119° @ 0210 AM 79 72 71 57 29.99" 0 0.00 0
Friona 2NE  05:40 AM 66 59 81% NW56 20 mph 340° @ 1205 AM 75 65 84 56 30.10" 0 0.00 0
Gail 2ESE  05:40 AM 71 63 80% W34 17 mph 93° @ 0225 AM 78 70 83 62 29.98" 0 0.01 0
Goodlett 3W  05:40 AM 76 62 64% NW911 15 mph 313° @ 0500 AM 83 75 72 54 29.90" 0 0.00 0
Graham 5SSW  05:30 AM 71 65 82% W910 16 mph 254° @ 1225 AM 76 71 82 64 30.00" 0 0.00 0
Guthrie 10WSW  05:40 AM 75 64 70% NW79 12 mph 80° @ 1205 AM 78 75 80 64 29.91" 0 0.00 0
Hart 3N  05:40 AM 68 64 87% W67 16 mph 313° @ 0100 AM 74 68 87 65 30.05" 0 0.00 0
Haskell 1NW  05:40 AM 74 62 69% N34 12 mph 238° @ 1205 AM 87 74 70 40 29.90" 0 0.00 0
Hereford 2NW  05:40 AM 64 53 70% W46 21 mph 320° @ 1230 AM 77 64 74 48 30.08" 0 0.00 0
Hobbs NM 5NW  05:40 AM 73 59 62% NE1012 26 mph 231° @ 0338 AM 74 69 84 53 30.06" 0 0.02 0
Jayton 1SSE  05:40 AM 74 67 81% W56 34 mph 153° @ 1250 AM 83 74 81 40 29.94" 0 0.60 0
Knox City 3NW  05:40 AM 76 62 65% SW56 9 mph 217° @ 0210 AM 87 76 65 43 29.90" 0 0.00 0
Lake Alan Henry 1NW  05:40 AM 76 61 61% SW56 17 mph 80° @ 0118 AM 80 76 66 49 29.96" 0 0.00 0
Lamesa 2SE  05:40 AM 71 61 72% N44 18 mph 85° @ 0335 AM 76 71 72 60 30.02" 0 0.00 0
Levelland 4S  05:40 AM 69 59 72% N68 17 mph 350° @ 0320 AM 77 69 72 48 30.06" 0 0.00 0
Lubbock 3WNW TTU  05:40 AM 70 63 80% W34 17 mph 347° @ 0325 AM 79 70 80 51 30.03" 0 0.00 0
Memphis 1NE  05:40 AM 73 66 82% SE34 24 mph 202° @ 0115 AM 82 73 82 55 29.94" 0 0.00 0
Morton 1ENE  05:40 AM 69 65 88% NW14 18 mph 237° @ 1205 AM 76 66 92 64 30.06" 0.06 0.55 0
Muleshoe 2SSW  05:40 AM 65 62 94% SW23 16 mph 2° @ 0115 AM 71 65 94 64 30.09" 0 0.01 0
New Home  05:40 AM 71 65 80% S44 16 mph 236° @ 1217 AM 76 70 85 60 30.05" 0 0.00 0
Northfield 1S  05:40 AM 73 66 80% W45 26 mph 266° @ 1240 AM 77 72 82 61 29.93" 0 0.02 0
O'Donnell 1N  05:40 AM 72 58 63% NE33 17 mph 224° @ 1210 AM 77 72 63 53 30.02" 0 0.00 0
Odell 4ENE  05:40 AM 73 67 80% W45 12 mph 306° @ 0457 AM 85 73 84 50 29.90" 0 0.00 0
Olton 6S  05:40 AM 70 66 89% W66 13 mph 331° @ 0145 AM 74 69 89 72 30.05" 0 0.00 0
Paducah 10SW  05:40 AM 75 65 73% W78 15 mph 254° @ 0400 AM 78 73 86 67 29.91" 0 0.00 0
Palo Duro Canyon SP Floor  05:40 AM 73 64 73% N78 17 mph 172° @ 0151 AM 79 72 77 58 30.00" 0 0.00 0
Palo Duro Canyon State Park Rim  05:40 AM 70 62 75% NW1012 15 mph 229° @ 0406 AM 75 70 79 60 30.05" 0 0.00 0
Plains 3N  05:40 AM 68 65 92% N1114 21 mph 352° @ 0410 AM 77 68 92 52 30.08" 0.12 0.12 0
Plainview 1S  05:40 AM 72 65 82% NW46 20 mph 1° @ 0250 AM 78 71 87 62 30.01" 0 0.00 0
Post 1NE  05:40 AM 75 62 67% W811 12 mph 246° @ 0535 AM 79 74 76 60 29.97" 0 0.00 0
Ralls 1SE  05:40 AM 69 60 74% W68 12 mph 186° @ 0400 AM 77 69 76 60 30.01" 0 0.00 0
Reese Center  05:40 AM 69 61 77% S35 15 mph 346° @ 0315 AM 76 69 77 57 30.04" 0 0.00 0
Roaring Springs 3N  05:40 AM 73 64 75% W910 16 mph 344° @ 1225 AM 78 73 78 58 29.95" 0 0.00 0
Seagraves 1SW  05:40 AM 74 61 65% NE610 15 mph 10° @ 0500 AM 75 72 70 57 30.04" 0 0.00 0
Seminole 2NNE  05:40 AM 71 62 74% NE912 19 mph 43° @ 0535 AM 75 71 74 58 30.03" 0 0.00 0
Seymour 3NW  03:25 AM 82 62 52% SW67 16 mph 246° @ 1225 AM 90 82 52 39 29.87" 0 0.00 0
Silverton 7ESE  05:40 AM 68 64 87% SW68 24 mph 261° @ 0330 AM 74 68 88 68 30.00" 0 0.19 0
Slaton 2NE  05:40 AM 72 61 69% SW67 12 mph 145° @ 0335 AM 76 72 69 59 30.02" 0 0.00 0
Snyder 3E  05:40 AM 74 65 73% W56 21 mph 164° @ 0215 AM 80 73 84 59 29.97" 0 0.00 0
Snyder 3SSW  05:40 AM 74 65 73% NW66 18 mph 111° @ 1251 AM 81 74 84 57 29.97" 0 0.00 0
Spur 1W  05:40 AM 75 62 64% NE12 19 mph 248° @ 0350 AM 78 74 66 56 29.94" 0 0.00 0
Stamford 5ESE  05:40 AM 75 63 66% NW22 14 mph 296° @ 0204 AM 87 75 66 47 29.92" 0 0.00 0
Sundown 8WSW  05:40 AM 68 63 87% W23 15 mph 209° @ 1250 AM 76 67 86 56 30.07" 0 0.00 0
Tahoka 3NNE  05:40 AM 71 63 75% SW34 15 mph 120° @ 0321 AM 77 70 78 53 30.03" 0 0.00 0
Tatum NM 2SW  05:40 AM 68 62 84% NW23 21 mph 314° @ 1230 AM 72 65 91 70 30.09" 0 0.01 0
Throckmorton 1SW  05:40 AM 76 69 79% W55 20 mph 191° @ 1253 AM 87 75 83 48 29.91" 0 0.00 0
Tulia 2ENE  05:40 AM 68 65 92% W1115 21 mph 50° @ 0220 AM 76 66 97 65 30.02" 0.01 0.32 0
Turkey 2WSW  05:40 AM 72 68 89% SW67 34 mph 138° @ 1210 AM 80 72 89 56 29.95" 0 0.01 0
Umbarger 3NNE  05:40 AM 66 61 84% W68 23 mph 177° @ 0252 AM 73 66 84 62 30.07" 0 0.00 0
Vigo Park  05:40 AM 69 62 78% NW910 25 mph 360° @ 0124 AM 75 67 93 61 30.03" 0.01 0.69 0
Weinert 2NNE  05:40 AM 76 63 64% W45 10 mph 247° @ 1235 AM 88 76 66 45 29.91" 0 0.00 0
Welch  05:40 AM 73 61 66% NE56 13 mph 219° @ 1209 AM 77 72 73 53 30.04" 0 0.00 0
White River Lake 6NW  05:40 AM 76 58 56% W912 13 mph 269° @ 0535 AM 79 73 65 54 29.97" 0 0.00 0
Wolfforth 6SSW  05:40 AM 71 60 69% N44 18 mph 238° @ 1220 AM 78 71 69 52 30.04" 0 0.00 0

West Texas Mesonet Home   Site Map/Menu  NWS Lubbock Soil Data  Daily Summary Page  24hr Precip  72hr Precip  Google Plot